MSC Beryl — 3EXV8 — position and weather

sailwx.info

Track history (hours):
 
Tides and Currents Weather Stations Pressure Air Temp Water Temp Dewpoint Dewpoint Depression Visibility Wind Speed Wind Dir Waves Ship Positions

MSC Beryl

Last reported at 2018-Feb-19 06:10 UTC. Time now 2018-Feb-25 12:09 UTC.
Position N 01°15' E 104°03'.

Length 366 m; draft 10.5 m.

Type: Ship (hazmat cat A). MMSI: 357926000.

Date/timePositionNaut miles runAvg speedWind from/ knotsBaromVisibWave heightAir tempDewpointWater temp
2018-Feb-19 06:10N 01°15' E 104°03'418.9
2018-Feb-19 05:58N 01°14' E 103°59'818.5
2018-Feb-19 05:30N 01°11' E 103°51'917.8
2018-Feb-19 05:01N 01°06' E 103°44'916.9
2018-Feb-19 04:30N 01°06' E 103°36'917.3
2018-Feb-19 04:00N 01°14' E 103°32'5 9.4
2018-Feb-19 03:30N 01°18' E 103°33'3 5.5
2018-Feb-19 03:00N 01°21' E 103°33'0 0.1
2018-Feb-19 01:45N 01°21' E 103°33'0 0.0
2018-Feb-19 01:24N 01°21' E 103°33'0 0.0
2018-Feb-19 00:51N 01°21' E 103°33'0 0.0
2018-Feb-19 00:30N 01°21' E 103°33'0 0.0
2018-Feb-18 16:39N 01°21' E 103°33'0 0.0
2018-Feb-18 05:27N 01°21' E 103°33'0 0.0
2018-Feb-18 03:45N 01°21' E 103°33'0 0.0
2018-Feb-18 02:02N 01°21' E 103°33'0 0.1
2018-Feb-18 02:00N 01°21' E 103°33'0 0.0
2018-Feb-18 01:29N 01°21' E 103°33'0 0.0
2018-Feb-18 00:57N 01°21' E 103°33'0 0.0
2018-Feb-18 00:30N 01°21' E 103°33'0 0.0
2018-Feb-17 23:45N 01°21' E 103°33'0 0.1
2018-Feb-17 23:27N 01°21' E 103°33'0 0.0
2018-Feb-17 22:57N 01°21' E 103°33'0 0.0
2018-Feb-17 22:30N 01°21' E 103°33'0 0.0
2018-Feb-17 21:56N 01°21' E 103°33'0 0.0
2018-Feb-17 21:30N 01°21' E 103°33'0 0.4
2018-Feb-17 21:00N 01°21' E 103°33'3 5.5
2018-Feb-17 20:30N 01°18' E 103°33'4 7.1
2018-Feb-17 20:00N 01°15' E 103°32'4 7.4
2018-Feb-17 19:30N 01°11' E 103°31'2 4.7
2018-Feb-17 18:59N 01°10' E 103°28'1 2.9
2018-Feb-17 18:30N 01°11' E 103°27'2 3.5
2018-Feb-17 18:00N 01°12' E 103°26'5 8.2
2018-Feb-17 17:23N 01°15' E 103°21'  
Track history (hours):
 
Tides and Currents Weather Stations Pressure Air Temp Water Temp Dewpoint Dewpoint Depression Visibility Wind Speed Wind Dir Waves Ship Positions

MSC Beryl

Last reported at 2018-Feb-19 06:10 UTC. Time now 2018-Feb-25 12:09 UTC.
Position N 01°15' E 104°03'.

Length 366 m; draft 10.5 m.

Type: Ship (hazmat cat A). MMSI: 357926000.

Date/timePositionNaut miles runAvg speedWind from/ knotsBaromVisibWave heightAir tempDewpointWater temp
2018-Feb-19 06:10N 01°15' E 104°03'418.9
2018-Feb-19 05:58N 01°14' E 103°59'818.5
2018-Feb-19 05:30N 01°11' E 103°51'917.8
2018-Feb-19 05:01N 01°06' E 103°44'916.9
2018-Feb-19 04:30N 01°06' E 103°36'917.3
2018-Feb-19 04:00N 01°14' E 103°32'5 9.4
2018-Feb-19 03:30N 01°18' E 103°33'3 5.5
2018-Feb-19 03:00N 01°21' E 103°33'0 0.1
2018-Feb-19 01:45N 01°21' E 103°33'0 0.0
2018-Feb-19 01:24N 01°21' E 103°33'0 0.0
2018-Feb-19 00:51N 01°21' E 103°33'0 0.0
2018-Feb-19 00:30N 01°21' E 103°33'0 0.0
2018-Feb-18 16:39N 01°21' E 103°33'0 0.0
2018-Feb-18 05:27N 01°21' E 103°33'0 0.0
2018-Feb-18 03:45N 01°21' E 103°33'0 0.0
2018-Feb-18 02:02N 01°21' E 103°33'0 0.1
2018-Feb-18 02:00N 01°21' E 103°33'0 0.0
2018-Feb-18 01:29N 01°21' E 103°33'0 0.0
2018-Feb-18 00:57N 01°21' E 103°33'0 0.0
2018-Feb-18 00:30N 01°21' E 103°33'0 0.0
2018-Feb-17 23:45N 01°21' E 103°33'0 0.1
2018-Feb-17 23:27N 01°21' E 103°33'0 0.0
2018-Feb-17 22:57N 01°21' E 103°33'0 0.0
2018-Feb-17 22:30N 01°21' E 103°33'0 0.0
2018-Feb-17 21:56N 01°21' E 103°33'0 0.0
2018-Feb-17 21:30N 01°21' E 103°33'0 0.4
2018-Feb-17 21:00N 01°21' E 103°33'3 5.5
2018-Feb-17 20:30N 01°18' E 103°33'4 7.1
2018-Feb-17 20:00N 01°15' E 103°32'4 7.4
2018-Feb-17 19:30N 01°11' E 103°31'2 4.7
2018-Feb-17 18:59N 01°10' E 103°28'1 2.9
2018-Feb-17 18:30N 01°11' E 103°27'2 3.5
2018-Feb-17 18:00N 01°12' E 103°26'5 8.2
2018-Feb-17 17:23N 01°15' E 103°21'  

Dump ship's entire track history